createdAt,value
2022-12-22T00:02:51.465Z,15.20
2022-12-22T00:06:19.651Z,13.00
2022-12-22T00:30:51.465Z,15.13
2022-12-22T00:35:19.633Z,12.90
2022-12-22T00:39:48.363Z,15.40
2022-12-22T00:44:04.146Z,12.80
2022-12-22T00:51:21.014Z,9.98
2022-12-22T00:54:52.499Z,8.45
2022-12-22T00:58:03.109Z,7.75
2022-12-22T01:01:14.365Z,7.80
2022-12-22T01:04:35.691Z,9.73
2022-12-22T01:07:58.558Z,11.50
2022-12-22T01:11:05.049Z,15.20
2022-12-22T01:14:09.639Z,11.90
2022-12-22T01:21:11.162Z,10.20
2022-12-22T01:24:28.063Z,12.10
2022-12-22T01:28:38.757Z,9.43
2022-12-22T01:32:01.472Z,8.75
2022-12-22T01:35:46.123Z,10.60
2022-12-22T01:46:54.049Z,10.40
2022-12-22T01:50:06.944Z,9.18
2022-12-22T01:53:04.608Z,9.70
2022-12-22T01:59:15.485Z,11.02
2022-12-22T02:02:19.029Z,9.90
2022-12-22T02:05:09.464Z,11.68
2022-12-22T02:08:18.505Z,10.65
2022-12-22T02:11:43.367Z,7.82
2022-12-22T02:14:49.916Z,12.88
2022-12-22T02:17:49.923Z,8.63
2022-12-22T02:20:59.810Z,8.65
2022-12-22T02:24:35.478Z,7.47
2022-12-22T02:27:30.012Z,7.20
2022-12-22T02:30:34.292Z,6.97
2022-12-22T02:40:41.782Z,3.33
2022-12-22T02:44:01.413Z,4.10
2022-12-22T02:47:48.352Z,4.18
2022-12-22T02:50:59.069Z,3.90
2022-12-22T02:53:51.587Z,3.60
2022-12-22T02:56:42.826Z,5.00
2022-12-22T02:59:50.848Z,3.25
2022-12-22T03:02:42.914Z,3.17
2022-12-22T03:05:32.955Z,2.53
2022-12-22T03:08:47.617Z,2.65
2022-12-22T03:11:37.228Z,3.15
2022-12-22T03:14:35.847Z,2.17
2022-12-22T03:17:29.400Z,1.88
2022-12-22T03:20:23.661Z,2.05
2022-12-22T03:26:17.053Z,2.40
2022-12-22T03:28:48.074Z,0.90
2022-12-22T03:31:21.785Z,0.60
2022-12-22T03:34:16.220Z,0.70
2022-12-22T03:36:46.540Z,1.08
2022-12-22T03:39:24.788Z,0.50
2022-12-22T03:42:24.180Z,0.82
2022-12-22T03:45:29.623Z,1.00
2022-12-22T03:48:00.371Z,1.88
2022-12-22T03:50:40.658Z,1.40
2022-12-22T03:53:30.961Z,0.80
2022-12-22T03:56:07.315Z,1.70
2022-12-22T03:58:45.239Z,1.30
2022-12-22T04:01:26.052Z,0.98
2022-12-22T04:04:03.453Z,2.40
2022-12-22T04:10:21.611Z,3.10
2022-12-22T04:13:19.289Z,2.10
2022-12-22T04:15:53.440Z,1.92
2022-12-22T04:18:50.415Z,2.72
2022-12-22T04:21:43.262Z,2.75
2022-12-22T04:24:25.598Z,3.75
2022-12-22T04:27:03.544Z,4.35
2022-12-22T04:29:46.868Z,3.22
2022-12-22T04:32:18.865Z,3.33
2022-12-22T04:34:50.409Z,3.88
2022-12-22T04:37:25.577Z,3.53
2022-12-22T04:39:57.127Z,3.05
2022-12-22T04:42:32.784Z,2.40
2022-12-22T04:45:09.283Z,2.80
2022-12-22T04:47:39.250Z,2.75
2022-12-22T04:50:12.189Z,3.80
2022-12-22T04:52:47.456Z,3.72
2022-12-22T04:55:30.988Z,3.70
2022-12-22T04:58:34.050Z,5.63
2022-12-22T05:01:51.752Z,3.40
2022-12-22T05:04:37.385Z,3.65
2022-12-22T05:10:28.575Z,4.75
2022-12-22T05:13:40.434Z,5.68
2022-12-22T05:16:48.974Z,5.80
2022-12-22T05:19:35.721Z,6.50
2022-12-22T05:22:19.047Z,5.63
2022-12-22T05:25:35.381Z,5.47
2022-12-22T05:28:56.765Z,4.80
2022-12-22T05:31:34.717Z,3.85
2022-12-22T05:34:31.561Z,3.80
2022-12-22T05:37:13.779Z,3.75
2022-12-22T05:40:11.994Z,3.22
2022-12-22T05:46:52.985Z,1.92
2022-12-22T05:49:48.543Z,2.38
2022-12-22T05:53:09.753Z,1.80
2022-12-22T05:56:21.292Z,3.72
2022-12-22T06:02:11.183Z,1.80
2022-12-22T06:04:46.131Z,2.65
2022-12-22T06:07:24.909Z,1.95
2022-12-22T06:09:57.081Z,1.95
2022-12-22T06:12:26.985Z,1.10
2022-12-22T06:15:42.771Z,1.48
2022-12-22T06:18:12.280Z,1.13
2022-12-22T06:20:47.055Z,1.80
2022-12-22T06:23:18.336Z,2.38
2022-12-22T06:26:06.099Z,1.50
2022-12-22T06:29:31.920Z,1.50
2022-12-22T06:32:30.329Z,1.17
2022-12-22T06:35:21.035Z,1.63
2022-12-22T06:37:58.474Z,1.30
2022-12-22T06:40:53.265Z,1.13
2022-12-22T06:51:20.682Z,1.08
2022-12-22T06:54:08.530Z,1.50
2022-12-22T06:57:12.469Z,1.98
2022-12-22T07:00:25.983Z,1.33
2022-12-22T07:07:05.875Z,1.55
2022-12-22T07:10:14.397Z,2.15
2022-12-22T07:21:44.128Z,2.90
2022-12-22T07:29:04.198Z,1.35
2022-12-22T07:31:47.872Z,1.50
2022-12-22T07:35:34.836Z,1.88
2022-12-22T16:14:50.315Z,1.40
2022-12-22T16:18:56.633Z,1.67
2022-12-22T16:29:58.382Z,3.50
2022-12-22T16:32:34.090Z,2.17
2022-12-22T16:35:17.884Z,3.45
2022-12-22T16:37:49.184Z,2.22
2022-12-22T16:40:19.847Z,1.30
2022-12-22T16:45:50.284Z,2.97
2022-12-22T16:48:29.558Z,1.52
2022-12-22T16:51:02.235Z,1.48
2022-12-22T16:53:59.045Z,5.72
2022-12-22T16:57:31.075Z,2.78
2022-12-22T17:00:14.100Z,2.97
2022-12-22T17:11:51.278Z,5.50
2022-12-22T17:14:30.982Z,6.28
2022-12-22T17:17:00.120Z,5.00
2022-12-22T17:19:29.607Z,9.75
2022-12-22T17:22:00.359Z,5.22
2022-12-22T17:24:30.271Z,5.25
2022-12-22T17:27:05.913Z,4.03
2022-12-22T17:29:35.309Z,3.20
2022-12-22T17:32:04.565Z,4.22
2022-12-22T17:34:34.981Z,3.90
2022-12-22T17:37:03.923Z,5.00
2022-12-22T17:39:34.020Z,4.93
2022-12-22T17:42:21.316Z,3.53
2022-12-22T17:44:50.849Z,4.22
2022-12-22T17:47:32.233Z,5.18
2022-12-22T17:50:02.814Z,5.55
2022-12-22T17:52:34.768Z,4.55
2022-12-22T17:56:09.709Z,8.25
2022-12-22T17:58:50.399Z,4.38
2022-12-22T18:01:25.488Z,3.75
2022-12-22T18:03:55.283Z,4.75
2022-12-22T18:06:27.842Z,5.97
2022-12-22T18:08:58.710Z,6.30
2022-12-22T18:11:29.052Z,4.30
2022-12-22T18:14:03.251Z,6.28
2022-12-22T18:16:33.688Z,4.72
2022-12-22T18:19:02.706Z,4.50
2022-12-22T18:25:04.163Z,4.03
2022-12-22T19:27:15.385Z,9.05
2022-12-22T22:28:23.479Z,3.50
2022-12-22T22:31:42.765Z,2.83
2022-12-22T22:47:23.917Z,1.65
2022-12-22T22:59:05.699Z,0.85
2022-12-22T23:02:47.698Z,2.15
2022-12-22T23:16:17.113Z,1.92
2022-12-22T23:20:12.449Z,0.73
2022-12-22T23:31:23.004Z,1.55
2022-12-22T23:34:11.975Z,2.10
2022-12-22T23:40:57.121Z,2.10
2022-12-22T23:55:14.526Z,1.92
